Terminal Aerodrome Forecast
Issued by NWS Goodland, KS

Home | Current Version | Previous Version | Text Only | Print | Product List | Glossary On
Versions: 1 2 3 4 5 6 7 8 9 10 11 12 13 14 15 16
000
FTUS43 KGLD 181700
TAFGLD
TAF
KGLD 181731Z 1818/1918 18023G32KT P6SM SCT250
     FM190100 16018G23KT P6SM SKC
     FM191200 18015KT P6SM BKN250=

USA.gov is the U.S. government's official web portal to all federal, state and local government web resources and services.